Time;durP1;ratioP1;P1;durP2;ratioP2;P2;SDS_P1;SDS_P2;PMS_P1;PMS_P2;Temp;Humidity;BMP_temperature;BMP_pressure;BME280_temperature;BME280_humidity;BME280_pressure;Samples;Min_cycle;Max_cycle;Signal;HPM_P1;HPM_P2
2021/10/11 00:00:07;;;;;;;71.97;48.47;;;;;;;;;;5094058;28;20450;-75
2021/10/11 00:02:34;;;;;;;65.50;44.00;;;;;;;;;;5093584;28;20443;-74
2021/10/11 00:05:03;;;;;;;69.23;46.70;;;;;;;;;;5094176;28;20514;-75
2021/10/11 00:07:32;;;;;;;66.27;45.00;;;;;;;;;;5093813;28;20548;-75
2021/10/11 00:09:59;;;;;;;66.60;45.13;;;;;;;;;;5094273;28;20449;-76
2021/10/11 00:12:26;;;;;;;70.28;48.85;;;;;;;;;;5093781;28;20534;-76
2021/10/11 00:14:53;;;;;;;63.23;44.67;;;;;;;;;;5093400;28;20197;-76
2021/10/11 00:17:21;;;;;;;69.00;44.97;;;;;;;;;;5093691;28;20453;-75
2021/10/11 00:19:50;;;;;;;66.70;45.07;;;;;;;;;;5093699;28;20465;-75
2021/10/11 00:22:17;;;;;;;70.20;45.30;;;;;;;;;;5092625;28;20444;-75
2021/10/11 00:24:46;;;;;;;70.13;47.97;;;;;;;;;;5093543;28;20479;-76
2021/10/11 00:27:13;;;;;;;64.53;46.80;;;;;;;;;;5093318;28;20446;-76
2021/10/11 00:29:40;;;;;;;79.63;45.67;;;;;;;;;;5093744;28;20461;-76
2021/10/11 00:32:08;;;;;;;72.88;47.95;;;;;;;;;;5093440;28;20446;-75
2021/10/11 00:34:36;;;;;;;70.43;46.70;;;;;;;;;;5093885;28;20197;-75
2021/10/11 00:37:03;;;;;;;63.90;44.63;;;;;;;;;;5093220;28;20956;-76
2021/10/11 00:39:31;;;;;;;64.93;44.17;;;;;;;;;;5093441;28;20443;-76
2021/10/11 00:41:59;;;;;;;63.27;46.40;;;;;;;;;;5093463;28;20487;-76
2021/10/11 00:44:26;;;;;;;60.20;42.40;;;;;;;;;;5093289;28;20474;-75
2021/10/11 00:46:54;;;;;;;64.13;44.20;;;;;;;;;;5093085;28;20442;-75
2021/10/11 00:49:21;;;;;;;65.20;45.07;;;;;;;;;;5093682;28;20441;-75
2021/10/11 00:51:48;;;;;;;63.87;44.60;;;;;;;;;;5093353;28;20443;-75
2021/10/11 00:54:16;;;;;;;70.47;46.73;;;;;;;;;;5093186;28;20475;-75
2021/10/11 00:56:43;;;;;;;62.30;45.80;;;;;;;;;;5093352;28;20451;-75
2021/10/11 00:59:11;;;;;;;61.47;42.63;;;;;;;;;;5093403;28;20447;-75
2021/10/11 01:01:39;;;;;;;64.77;45.47;;;;;;;;;;5093193;28;20944;-76
2021/10/11 01:04:06;;;;;;;68.60;45.00;;;;;;;;;;5093138;28;20483;-75
2021/10/11 01:06:34;;;;;;;62.57;43.70;;;;;;;;;;5093241;28;20439;-76
2021/10/11 01:09:01;;;;;;;70.17;45.87;;;;;;;;;;5093372;28;20439;-75
2021/10/11 01:11:28;;;;;;;65.70;45.30;;;;;;;;;;5093057;28;20448;-75
2021/10/11 01:13:56;;;;;;;64.83;47.03;;;;;;;;;;5092940;28;20439;-76
2021/10/11 01:16:24;;;;;;;68.83;42.93;;;;;;;;;;5093143;28;20775;-76
2021/10/11 01:18:51;;;;;;;76.93;46.77;;;;;;;;;;5093535;28;20861;-76
2021/10/11 01:21:20;;;;;;;64.63;46.80;;;;;;;;;;5093431;28;20435;-76
2021/10/11 01:23:47;;;;;;;73.83;48.77;;;;;;;;;;5093012;28;20482;-79
2021/10/11 01:26:14;;;;;;;76.00;48.87;;;;;;;;;;5092746;28;20450;-76
2021/10/11 01:28:42;;;;;;;77.10;51.53;;;;;;;;;;5092724;28;20439;-76
2021/10/11 01:31:09;;;;;;;91.80;54.20;;;;;;;;;;5093819;28;20445;-76
2021/10/11 01:33:36;;;;;;;89.27;53.97;;;;;;;;;;5096839;28;20450;-78
2021/10/11 01:36:04;;;;;;;85.27;51.67;;;;;;;;;;5096694;28;20446;-78
2021/10/11 01:38:32;;;;;;;83.10;53.53;;;;;;;;;;5096312;28;20443;-77
2021/10/11 01:40:59;;;;;;;98.03;56.20;;;;;;;;;;5096600;28;20189;-78
2021/10/11 01:43:27;;;;;;;92.57;54.03;;;;;;;;;;5096731;28;20486;-78
2021/10/11 01:45:54;;;;;;;94.57;57.60;;;;;;;;;;5096556;28;20441;-78
2021/10/11 01:48:21;;;;;;;91.60;52.47;;;;;;;;;;5096412;28;20455;-76
2021/10/11 01:50:48;;;;;;;87.63;52.00;;;;;;;;;;5096416;28;20449;-74
2021/10/11 01:53:15;;;;;;;91.07;57.50;;;;;;;;;;5096369;28;20438;-75
2021/10/11 01:55:44;;;;;;;99.83;56.70;;;;;;;;;;5096643;28;20445;-75
2021/10/11 01:58:11;;;;;;;97.87;57.17;;;;;;;;;;5095995;28;20968;-75
2021/10/11 02:00:38;;;;;;;95.10;55.67;;;;;;;;;;5096220;28;20438;-75
2021/10/11 02:03:07;;;;;;;101.43;56.33;;;;;;;;;;5096023;28;20473;-74
2021/10/11 02:05:34;;;;;;;99.90;55.00;;;;;;;;;;5096647;28;20486;-74
2021/10/11 02:08:01;;;;;;;93.53;54.13;;;;;;;;;;5096572;28;20439;-75
2021/10/11 02:10:29;;;;;;;104.37;57.67;;;;;;;;;;5095704;28;20443;-75
2021/10/11 02:12:57;;;;;;;110.80;58.80;;;;;;;;;;5095985;28;20444;-75
2021/10/11 02:15:25;;;;;;;101.90;56.57;;;;;;;;;;5096127;28;20813;-75
2021/10/11 02:17:52;;;;;;;99.37;53.00;;;;;;;;;;5096437;28;20432;-75
2021/10/11 02:20:19;;;;;;;103.03;57.40;;;;;;;;;;5095854;28;20609;-74
2021/10/11 02:22:46;;;;;;;117.53;58.70;;;;;;;;;;5096044;28;20934;-74
2021/10/11 02:25:14;;;;;;;107.63;57.57;;;;;;;;;;5095722;28;20485;-74
2021/10/11 02:27:41;;;;;;;103.40;58.70;;;;;;;;;;5095681;28;20514;-75
2021/10/11 02:30:11;;;;;;;102.87;52.90;;;;;;;;;;5095650;28;20439;-75
2021/10/11 02:32:39;;;;;;;93.17;51.97;;;;;;;;;;5095342;28;20801;-75
2021/10/11 02:35:06;;;;;;;93.73;53.40;;;;;;;;;;5095661;28;20534;-75
2021/10/11 02:37:33;;;;;;;95.47;53.43;;;;;;;;;;5095504;28;20448;-75
2021/10/11 02:40:01;;;;;;;93.90;51.53;;;;;;;;;;5095483;28;20449;-74
2021/10/11 02:42:28;;;;;;;107.63;51.90;;;;;;;;;;5096239;28;20441;-75
2021/10/11 02:44:55;;;;;;;98.47;53.70;;;;;;;;;;5094632;28;20483;-75
2021/10/11 02:47:24;;;;;;;96.67;51.73;;;;;;;;;;5095345;28;20435;-74
2021/10/11 02:49:51;;;;;;;80.70;47.67;;;;;;;;;;5095623;28;20542;-74
2021/10/11 02:52:18;;;;;;;84.37;47.77;;;;;;;;;;5095338;28;20535;-73
2021/10/11 02:54:45;;;;;;;105.17;50.93;;;;;;;;;;5095153;28;20450;-73
2021/10/11 02:57:12;;;;;;;100.03;47.67;;;;;;;;;;5095125;28;20438;-73
2021/10/11 02:59:40;;;;;;;90.37;45.07;;;;;;;;;;5095129;28;20863;-74
2021/10/11 03:02:07;;;;;;;94.43;46.17;;;;;;;;;;5095065;28;20448;-74
2021/10/11 03:04:36;;;;;;;93.40;47.37;;;;;;;;;;5094590;28;20487;-74
2021/10/11 03:07:03;;;;;;;82.03;46.47;;;;;;;;;;5094960;28;20556;-73
2021/10/11 03:09:30;;;;;;;92.67;45.93;;;;;;;;;;5094864;28;20444;-73
2021/10/11 03:11:57;;;;;;;89.90;46.10;;;;;;;;;;5094472;28;20933;-73
2021/10/11 03:14:24;;;;;;;80.67;42.53;;;;;;;;;;5094750;28;20811;-73
2021/10/11 03:16:52;;;;;;;84.60;45.20;;;;;;;;;;5095191;28;20449;-73
2021/10/11 03:19:19;;;;;;;78.20;41.00;;;;;;;;;;5094318;28;20446;-73
2021/10/11 03:21:47;;;;;;;90.65;42.97;;;;;;;;;;5094418;28;20948;-73
2021/10/11 03:24:14;;;;;;;76.07;37.57;;;;;;;;;;5094551;28;20217;-73
2021/10/11 03:26:42;;;;;;;84.07;40.67;;;;;;;;;;5094744;28;20442;-73
2021/10/11 03:29:09;;;;;;;67.50;38.77;;;;;;;;;;5094505;28;20436;-73
2021/10/11 03:31:36;;;;;;;73.60;38.57;;;;;;;;;;5095124;28;20440;-73
2021/10/11 03:34:05;;;;;;;76.90;40.00;;;;;;;;;;5094353;28;20447;-74
2021/10/11 03:36:32;;;;;;;74.33;40.30;;;;;;;;;;5094938;28;20435;-74
2021/10/11 03:39:01;;;;;;;68.70;37.00;;;;;;;;;;5094985;28;20450;-73
2021/10/11 03:41:28;;;;;;;62.60;35.30;;;;;;;;;;5094926;28;20820;-74
2021/10/11 03:43:55;;;;;;;64.37;37.63;;;;;;;;;;5094764;28;20439;-74
2021/10/11 03:46:22;;;;;;;61.20;34.00;;;;;;;;;;5094248;28;20442;-74
2021/10/11 03:48:50;;;;;;;56.80;33.23;;;;;;;;;;5093812;28;20439;-73
2021/10/11 03:51:21;;;;;;;71.00;33.90;;;;;;;;;;5093775;28;20448;-74
2021/10/11 03:53:48;;;;;;;66.70;33.80;;;;;;;;;;5093792;28;20435;-73
2021/10/11 03:56:17;;;;;;;66.27;32.70;;;;;;;;;;5092767;28;20442;-73
2021/10/11 03:58:44;;;;;;;59.63;32.87;;;;;;;;;;5093916;28;20442;-74
2021/10/11 04:01:11;;;;;;;57.23;32.17;;;;;;;;;;5093961;28;20445;-74
2021/10/11 04:03:39;;;;;;;58.60;31.47;;;;;;;;;;5093689;28;20565;-74
2021/10/11 04:06:07;;;;;;;50.90;28.70;;;;;;;;;;5094033;28;20969;-72
2021/10/11 04:08:36;;;;;;;44.07;26.33;;;;;;;;;;5093838;28;20814;-73
2021/10/11 04:11:08;;;;;;;53.70;28.20;;;;;;;;;;5093963;28;20956;-74
2021/10/11 04:13:36;;;;;;;47.33;27.40;;;;;;;;;;5093543;28;20419;-73
2021/10/11 04:16:03;;;;;;;50.60;24.87;;;;;;;;;;5093478;28;20450;-75
2021/10/11 04:18:31;;;;;;;57.97;27.80;;;;;;;;;;5093395;28;20448;-75
2021/10/11 04:20:58;;;;;;;50.73;27.73;;;;;;;;;;5093279;28;20949;-74
2021/10/11 04:23:25;;;;;;;50.80;26.67;;;;;;;;;;5093690;28;20436;-75
2021/10/11 04:25:52;;;;;;;54.37;28.27;;;;;;;;;;5093569;28;20836;-75
2021/10/11 04:28:20;;;;;;;49.23;26.63;;;;;;;;;;5093564;28;20439;-72
2021/10/11 04:30:48;;;;;;;51.83;27.87;;;;;;;;;;5092538;28;20447;-72
2021/10/11 04:33:16;;;;;;;48.90;27.47;;;;;;;;;;5092628;28;20458;-72
2021/10/11 04:35:43;;;;;;;51.43;25.63;;;;;;;;;;5092201;28;20443;-71
2021/10/11 04:38:10;;;;;;;44.17;23.67;;;;;;;;;;5092507;28;20534;-71
2021/10/11 04:40:38;;;;;;;42.87;24.97;;;;;;;;;;5092749;28;20439;-73
2021/10/11 04:43:05;;;;;;;43.53;24.10;;;;;;;;;;5091732;28;20774;-71
2021/10/11 04:45:33;;;;;;;44.17;24.20;;;;;;;;;;5091952;28;20596;-71
2021/10/11 04:48:02;;;;;;;41.50;23.20;;;;;;;;;;5092166;28;20451;-71
2021/10/11 04:50:31;;;;;;;39.87;22.70;;;;;;;;;;5092007;28;20431;-70
2021/10/11 04:52:58;;;;;;;43.43;21.43;;;;;;;;;;5092085;28;20448;-73
2021/10/11 04:55:25;;;;;;;40.77;21.10;;;;;;;;;;5092654;28;20462;-73
2021/10/11 04:57:53;;;;;;;38.03;20.70;;;;;;;;;;5092182;28;20444;-76
2021/10/11 05:00:20;;;;;;;39.90;21.27;;;;;;;;;;5091991;28;20454;-73
2021/10/11 05:02:47;;;;;;;33.97;20.17;;;;;;;;;;5092126;28;20479;-73
2021/10/11 05:05:16;;;;;;;35.97;20.80;;;;;;;;;;5092143;28;20461;-74
2021/10/11 05:07:43;;;;;;;42.00;20.50;;;;;;;;;;5093987;28;20960;-73
2021/10/11 05:10:10;;;;;;;39.40;20.63;;;;;;;;;;5097301;28;20789;-74
2021/10/11 05:12:38;;;;;;;35.67;18.80;;;;;;;;;;5096883;28;20435;-74
2021/10/11 05:15:05;;;;;;;32.80;18.60;;;;;;;;;;5096466;28;20470;-74
2021/10/11 05:17:33;;;;;;;35.63;18.73;;;;;;;;;;5096227;28;20964;-72
2021/10/11 05:20:01;;;;;;;30.07;18.27;;;;;;;;;;5096101;28;20481;-74
2021/10/11 05:22:30;;;;;;;33.17;18.73;;;;;;;;;;5096085;28;20551;-74
2021/10/11 05:24:57;;;;;;;31.93;16.77;;;;;;;;;;5095855;28;20471;-76
2021/10/11 05:27:24;;;;;;;31.97;17.17;;;;;;;;;;5096926;28;20442;-76
2021/10/11 05:29:51;;;;;;;30.70;17.60;;;;;;;;;;5096033;28;20454;-75
2021/10/11 05:32:18;;;;;;;32.20;15.57;;;;;;;;;;5095767;28;20457;-74
2021/10/11 05:34:46;;;;;;;31.77;16.37;;;;;;;;;;5095786;28;20443;-74
2021/10/11 05:37:13;;;;;;;29.50;17.30;;;;;;;;;;5096617;28;20810;-75
2021/10/11 05:39:42;;;;;;;29.23;14.93;;;;;;;;;;5096574;28;20436;-76
2021/10/11 05:42:09;;;;;;;30.80;17.20;;;;;;;;;;5096751;28;20438;-76
2021/10/11 05:44:36;;;;;;;23.37;15.57;;;;;;;;;;5096335;28;20855;-73
2021/10/11 05:47:04;;;;;;;21.03;13.53;;;;;;;;;;5096436;28;20526;-73
2021/10/11 05:49:31;;;;;;;18.47;12.50;;;;;;;;;;5096897;28;20542;-73
2021/10/11 05:51:58;;;;;;;22.30;13.33;;;;;;;;;;5096401;28;20451;-73
2021/10/11 05:54:27;;;;;;;23.57;13.80;;;;;;;;;;5095904;28;20964;-73
2021/10/11 05:56:55;;;;;;;22.60;15.10;;;;;;;;;;5095792;28;20474;-73
2021/10/11 05:59:22;;;;;;;27.10;14.03;;;;;;;;;;5096189;28;20521;-74
2021/10/11 06:01:50;;;;;;;40.07;13.40;;;;;;;;;;5096264;28;20443;-73
2021/10/11 06:04:17;;;;;;;23.23;12.00;;;;;;;;;;5096299;28;20987;-74
2021/10/11 06:06:44;;;;;;;24.80;12.77;;;;;;;;;;5096050;28;21048;-73
2021/10/11 06:09:12;;;;;;;19.00;11.30;;;;;;;;;;5096493;28;20766;-73
2021/10/11 06:11:41;;;;;;;23.43;11.80;;;;;;;;;;5096422;28;20542;-73
2021/10/11 06:14:10;;;;;;;23.67;10.87;;;;;;;;;;5095869;28;20445;-73
2021/10/11 06:16:37;;;;;;;24.20;12.67;;;;;;;;;;5096307;28;20446;-73
2021/10/11 06:19:04;;;;;;;18.07;9.77;;;;;;;;;;5094764;28;20447;-73
2021/10/11 06:21:34;;;;;;;19.67;11.37;;;;;;;;;;5095388;28;20442;-73
2021/10/11 06:24:02;;;;;;;15.57;9.37;;;;;;;;;;5095477;28;20906;-74
2021/10/11 06:26:29;;;;;;;31.30;10.97;;;;;;;;;;5095617;28;20486;-73
2021/10/11 06:28:56;;;;;;;19.33;9.63;;;;;;;;;;5096118;28;20541;-74
2021/10/11 06:31:25;;;;;;;21.37;9.50;;;;;;;;;;5095587;28;20457;-73
2021/10/11 06:33:52;;;;;;;20.63;8.47;;;;;;;;;;5095113;28;20452;-73
2021/10/11 06:36:19;;;;;;;18.43;8.03;;;;;;;;;;5095129;28;20446;-73
2021/10/11 06:38:46;;;;;;;15.70;8.17;;;;;;;;;;5095420;28;20541;-73
2021/10/11 06:41:13;;;;;;;15.07;8.10;;;;;;;;;;5094999;28;20440;-73
2021/10/11 06:43:41;;;;;;;16.77;6.97;;;;;;;;;;5095690;28;20745;-73
2021/10/11 06:46:08;;;;;;;14.50;8.27;;;;;;;;;;5094834;28;20566;-74
2021/10/11 06:48:36;;;;;;;19.07;8.13;;;;;;;;;;5095328;28;20799;-74
2021/10/11 06:51:03;;;;;;;14.40;8.00;;;;;;;;;;5095174;28;20447;-74
2021/10/11 06:53:31;;;;;;;14.03;6.20;;;;;;;;;;5094973;28;20447;-74
2021/10/11 06:55:58;;;;;;;13.03;6.73;;;;;;;;;;5095051;28;20446;-74
2021/10/11 06:58:25;;;;;;;14.27;6.90;;;;;;;;;;5095132;28;20530;-73
2021/10/11 07:00:52;;;;;;;22.73;7.70;;;;;;;;;;5094909;28;20435;-74
2021/10/11 07:03:23;;;;;;;12.87;4.97;;;;;;;;;;5094680;28;20478;-75
2021/10/11 07:05:55;;;;;;;16.25;6.95;;;;;;;;;;5094434;28;20502;-74
2021/10/11 07:08:22;;;;;;;14.80;6.60;;;;;;;;;;5094527;28;20231;-74
2021/10/11 07:10:53;;;;;;;11.90;5.30;;;;;;;;;;5094955;28;20436;-75
2021/10/11 07:13:20;;;;;;;11.03;6.63;;;;;;;;;;5094303;28;20436;-75
2021/10/11 07:15:47;;;;;;;10.17;5.40;;;;;;;;;;5094924;28;20444;-75
2021/10/11 07:18:14;;;;;;;13.47;5.30;;;;;;;;;;5094643;28;20435;-75
2021/10/11 07:20:44;;;;;;;13.60;6.37;;;;;;;;;;5094193;28;20443;-76
2021/10/11 07:23:13;;;;;;;9.80;5.20;;;;;;;;;;5094152;28;20445;-76
2021/10/11 07:25:40;;;;;;;10.33;4.83;;;;;;;;;;5094345;28;20491;-77
2021/10/11 07:28:08;;;;;;;13.93;5.97;;;;;;;;;;5094348;28;20466;-76
2021/10/11 07:30:35;;;;;;;10.50;4.40;;;;;;;;;;5094104;28;20435;-76
2021/10/11 07:33:05;;;;;;;11.47;4.90;;;;;;;;;;5094430;28;20451;-75
2021/10/11 07:35:32;;;;;;;14.63;4.80;;;;;;;;;;5093903;28;20439;-76
2021/10/11 07:38:00;;;;;;;13.63;5.07;;;;;;;;;;5093886;28;20441;-74
2021/10/11 07:40:29;;;;;;;12.90;4.23;;;;;;;;;;5094839;28;20449;-75
2021/10/11 07:42:56;;;;;;;9.53;3.60;;;;;;;;;;5093770;28;20478;-75
2021/10/11 07:45:23;;;;;;;9.47;5.17;;;;;;;;;;5093836;28;20527;-75
2021/10/11 07:47:51;;;;;;;8.83;4.30;;;;;;;;;;5093629;28;20436;-77
2021/10/11 07:50:18;;;;;;;10.63;4.57;;;;;;;;;;5093978;28;20526;-76
2021/10/11 07:52:45;;;;;;;8.50;3.37;;;;;;;;;;5093905;28;20444;-77
2021/10/11 07:55:13;;;;;;;14.20;4.30;;;;;;;;;;5093841;28;20436;-76
2021/10/11 07:57:42;;;;;;;14.53;4.57;;;;;;;;;;5093854;28;20444;-76
2021/10/11 08:00:10;;;;;;;14.63;4.17;;;;;;;;;;5093670;28;20443;-76
2021/10/11 08:02:37;;;;;;;11.03;4.10;;;;;;;;;;5093369;28;20448;-76
2021/10/11 08:05:04;;;;;;;10.63;4.20;;;;;;;;;;5094521;28;20431;-75
2021/10/11 08:07:32;;;;;;;12.83;3.70;;;;;;;;;;5093184;28;20475;-76
2021/10/11 08:09:59;;;;;;;12.40;4.50;;;;;;;;;;5093240;28;20587;-75
2021/10/11 08:12:26;;;;;;;8.07;3.77;;;;;;;;;;5093758;28;20470;-75
2021/10/11 08:14:55;;;;;;;11.63;3.43;;;;;;;;;;5093775;28;20531;-76
2021/10/11 08:17:22;;;;;;;11.80;3.90;;;;;;;;;;5093604;28;20534;-76
2021/10/11 08:19:49;;;;;;;11.17;3.70;;;;;;;;;;5093132;28;20450;-76
2021/10/11 08:22:19;;;;;;;8.57;3.73;;;;;;;;;;5093609;28;20431;-76
2021/10/11 08:24:46;;;;;;;5.67;2.70;;;;;;;;;;5093569;28;20432;-76
2021/10/11 08:27:17;;;;;;;10.10;3.00;;;;;;;;;;5093283;28;20484;-75
2021/10/11 08:29:44;;;;;;;12.63;3.30;;;;;;;;;;5094055;28;20770;-76
2021/10/11 08:32:12;;;;;;;8.40;3.23;;;;;;;;;;5093829;28;20447;-76
2021/10/11 08:34:39;;;;;;;12.23;3.80;;;;;;;;;;5093358;28;20874;-75
2021/10/11 08:37:07;;;;;;;13.40;4.10;;;;;;;;;;5092501;28;20470;-74
2021/10/11 08:39:36;;;;;;;19.43;4.17;;;;;;;;;;5093581;28;20447;-75
2021/10/11 08:42:04;;;;;;;9.90;3.03;;;;;;;;;;5094150;28;20439;-75
2021/10/11 08:44:32;;;;;;;7.40;2.43;;;;;;;;;;5097425;28;20790;-76
2021/10/11 08:47:00;;;;;;;7.10;2.97;;;;;;;;;;5097492;28;20494;-75
2021/10/11 08:49:28;;;;;;;6.33;3.53;;;;;;;;;;5097415;28;20444;-76
2021/10/11 08:51:56;;;;;;;10.40;3.50;;;;;;;;;;5097078;28;20447;-75
2021/10/11 08:54:23;;;;;;;7.73;3.33;;;;;;;;;;5097628;28;20443;-75
2021/10/11 08:56:50;;;;;;;11.20;3.30;;;;;;;;;;5097014;28;20516;-74
2021/10/11 08:59:28;;;;;;;9.50;3.03;;;;;;;;;;5097899;28;20530;-74
2021/10/11 09:02:02;;;;;;;13.93;3.80;;;;;;;;;;5097323;28;20829;-75
2021/10/11 09:04:30;;;;;;;9.13;3.47;;;;;;;;;;5096703;28;20479;-75
2021/10/11 09:07:04;;;;;;;10.40;3.83;;;;;;;;;;5097083;28;20915;-75
2021/10/11 09:09:32;;;;;;;9.10;3.30;;;;;;;;;;5097075;28;20514;-74
2021/10/11 09:11:59;;;;;;;9.53;3.30;;;;;;;;;;5097098;28;20469;-74
2021/10/11 09:14:28;;;;;;;11.97;4.53;;;;;;;;;;5097025;28;20485;-74
2021/10/11 09:17:01;;;;;;;11.00;3.53;;;;;;;;;;5096949;28;20868;-74
2021/10/11 09:19:34;;;;;;;9.80;3.30;;;;;;;;;;5097022;28;20465;-74
2021/10/11 09:22:01;;;;;;;13.80;3.67;;;;;;;;;;5097726;28;20428;-74
2021/10/11 09:24:29;;;;;;;10.40;4.07;;;;;;;;;;5097233;28;20831;-75
2021/10/11 09:26:59;;;;;;;14.63;4.10;;;;;;;;;;5097038;28;20480;-74
2021/10/11 09:29:29;;;;;;;10.03;3.07;;;;;;;;;;5097127;28;20531;-74
2021/10/11 09:31:59;;;;;;;10.83;3.03;;;;;;;;;;5096602;28;20533;-74
2021/10/11 09:34:27;;;;;;;10.63;3.80;;;;;;;;;;5096348;28;20498;-74
2021/10/11 09:36:59;;;;;;;8.83;3.63;;;;;;;;;;5096946;28;20497;-74
2021/10/11 09:39:27;;;;;;;11.90;3.37;;;;;;;;;;5096805;28;20457;-74
2021/10/11 09:41:55;;;;;;;15.80;3.70;;;;;;;;;;5096660;28;20444;-74
2021/10/11 09:44:22;;;;;;;5.70;3.10;;;;;;;;;;5096351;28;20530;-74
2021/10/11 09:46:52;;;;;;;12.40;3.43;;;;;;;;;;5096475;28;20502;-74
2021/10/11 09:49:20;;;;;;;6.77;2.97;;;;;;;;;;5096477;28;20519;-74
2021/10/11 09:51:47;;;;;;;13.50;3.83;;;;;;;;;;5096211;28;20462;-74
2021/10/11 09:54:17;;;;;;;10.70;3.60;;;;;;;;;;5096345;28;20543;-74
2021/10/11 09:56:45;;;;;;;12.50;2.97;;;;;;;;;;5096851;28;20433;-74
2021/10/11 09:59:12;;;;;;;11.53;3.47;;;;;;;;;;5096159;28;20442;-74
2021/10/11 10:01:42;;;;;;;12.67;3.30;;;;;;;;;;5096117;28;20945;-74
2021/10/11 10:04:09;;;;;;;10.37;3.77;;;;;;;;;;5096468;28;20464;-74
2021/10/11 10:06:37;;;;;;;7.60;4.33;;;;;;;;;;5096139;28;20490;-74
2021/10/11 10:09:07;;;;;;;10.20;3.67;;;;;;;;;;5096238;28;20445;-74
2021/10/11 10:11:36;;;;;;;11.07;3.77;;;;;;;;;;5095691;28;20429;-73
2021/10/11 10:14:05;;;;;;;10.93;3.83;;;;;;;;;;5095848;28;20861;-74
2021/10/11 10:16:33;;;;;;;12.70;3.40;;;;;;;;;;5095875;28;20444;-74
2021/10/11 10:19:09;;;;;;;6.33;3.27;;;;;;;;;;5095470;28;20450;-74
2021/10/11 10:21:39;;;;;;;5.57;3.10;;;;;;;;;;5095796;28;20431;-74
2021/10/11 10:24:06;;;;;;;11.17;3.00;;;;;;;;;;5095983;28;20441;-74
2021/10/11 10:26:35;;;;;;;13.00;3.47;;;;;;;;;;5095495;28;20480;-74
2021/10/11 10:29:13;;;;;;;8.50;2.80;;;;;;;;;;5095724;28;20939;-74
2021/10/11 10:31:41;;;;;;;8.90;3.60;;;;;;;;;;5095835;28;20429;-75
2021/10/11 10:34:18;;;;;;;13.40;2.83;;;;;;;;;;5095995;28;20441;-74
2021/10/11 10:36:46;;;;;;;10.17;3.27;;;;;;;;;;5095466;28;20796;-74
2021/10/11 10:39:14;;;;;;;12.10;2.90;;;;;;;;;;5095068;28;20466;-74
2021/10/11 10:41:43;;;;;;;7.90;2.97;;;;;;;;;;5096017;28;20460;-73
2021/10/11 10:44:11;;;;;;;7.33;2.40;;;;;;;;;;5094931;28;20452;-73
2021/10/11 10:46:51;;;;;;;9.33;3.10;;;;;;;;;;5094972;28;20483;-73
2021/10/11 10:49:26;;;;;;;7.67;3.00;;;;;;;;;;5095815;28;20783;-74
2021/10/11 10:51:54;;;;;;;15.70;3.03;;;;;;;;;;5095213;28;20508;-73
2021/10/11 10:54:21;;;;;;;9.90;3.10;;;;;;;;;;5095147;28;20855;-74
2021/10/11 10:56:54;;;;;;;5.67;2.13;;;;;;;;;;5094800;28;20450;-73
2021/10/11 10:59:24;;;;;;;12.23;3.00;;;;;;;;;;5095421;28;20437;-73
2021/10/11 11:02:02;;;;;;;7.90;3.17;;;;;;;;;;5094877;28;20916;-74
2021/10/11 11:04:29;;;;;;;8.57;2.77;;;;;;;;;;5094288;28;20986;-74
2021/10/11 11:07:00;;;;;;;8.77;2.50;;;;;;;;;;5094749;28;20482;-74
2021/10/11 11:09:38;;;;;;;6.10;2.20;;;;;;;;;;5095136;28;20421;-75
2021/10/11 11:12:05;;;;;;;10.00;2.50;;;;;;;;;;5094935;28;20521;-75
2021/10/11 11:14:33;;;;;;;10.83;2.73;;;;;;;;;;5094729;28;20533;-74
2021/10/11 11:17:01;;;;;;;11.40;2.57;;;;;;;;;;5094791;28;20444;-74
2021/10/11 11:19:36;;;;;;;9.43;2.27;;;;;;;;;;5094731;28;20437;-74
2021/10/11 11:22:03;;;;;;;5.07;2.60;;;;;;;;;;5094656;28;20524;-74
2021/10/11 11:24:30;;;;;;;5.13;2.20;;;;;;;;;;5094266;28;20970;-73
2021/10/11 11:27:00;;;;;;;8.90;4.57;;;;;;;;;;5094177;28;20476;-74
2021/10/11 11:29:27;;;;;;;15.00;2.70;;;;;;;;;;5094401;28;20536;-74
2021/10/11 11:31:54;;;;;;;10.23;2.40;;;;;;;;;;5094829;28;20451;-73
2021/10/11 11:34:23;;;;;;;10.53;3.20;;;;;;;;;;5094340;28;20442;-74
2021/10/11 11:36:51;;;;;;;10.13;2.87;;;;;;;;;;5094315;28;20481;-74
2021/10/11 11:39:19;;;;;;;12.33;2.70;;;;;;;;;;5094497;28;20445;-75
2021/10/11 11:41:51;;;;;;;3.63;1.90;;;;;;;;;;5094530;28;20816;-76
2021/10/11 11:44:23;;;;;;;7.00;2.00;;;;;;;;;;5094114;28;20449;-75
2021/10/11 11:46:59;;;;;;;5.23;1.70;;;;;;;;;;5094456;28;20518;-74
2021/10/11 11:49:28;;;;;;;10.97;2.03;;;;;;;;;;5094700;28;20840;-74
2021/10/11 11:52:04;;;;;;;7.33;2.10;;;;;;;;;;5094075;28;20442;-74
2021/10/11 11:54:31;;;;;;;7.57;2.60;;;;;;;;;;5094148;28;20440;-73
2021/10/11 11:56:58;;;;;;;6.43;1.97;;;;;;;;;;5093654;28;20442;-76
2021/10/11 11:59:26;;;;;;;7.40;2.53;;;;;;;;;;5094176;28;20441;-74
2021/10/11 12:01:54;;;;;;;2.50;1.83;;;;;;;;;;5094111;28;20441;-75
2021/10/11 12:04:21;;;;;;;4.00;2.17;;;;;;;;;;5093501;28;20482;-74
2021/10/11 12:06:50;;;;;;;8.57;2.23;;;;;;;;;;5093321;28;20442;-74
2021/10/11 12:09:20;;;;;;;6.10;1.77;;;;;;;;;;5093903;28;20448;-73
2021/10/11 12:11:47;;;;;;;8.13;2.57;;;;;;;;;;5093863;28;20579;-73
2021/10/11 12:14:15;;;;;;;5.57;1.77;;;;;;;;;;5093426;28;20473;-74
2021/10/11 12:16:43;;;;;;;10.80;2.13;;;;;;;;;;5092893;28;20496;-74
2021/10/11 12:19:10;;;;;;;7.50;2.37;;;;;;;;;;5093400;28;20902;-73
2021/10/11 12:21:38;;;;;;;6.17;1.87;;;;;;;;;;5094095;28;20800;-74
2021/10/11 12:24:17;;;;;;;4.40;1.67;;;;;;;;;;5093332;28;20446;-73
2021/10/11 12:26:46;;;;;;;6.70;1.80;;;;;;;;;;5093567;28;20431;-73
2021/10/11 12:29:14;;;;;;;9.07;2.30;;;;;;;;;;5093871;28;20442;-73
2021/10/11 12:31:41;;;;;;;3.13;1.67;;;;;;;;;;5093114;28;20905;-73
2021/10/11 12:34:10;;;;;;;6.97;2.00;;;;;;;;;;5093751;28;20443;-73
2021/10/11 12:36:47;;;;;;;3.37;1.90;;;;;;;;;;5093397;28;20503;-74
2021/10/11 12:39:16;;;;;;;13.13;2.27;;;;;;;;;;5093231;28;20504;-73
2021/10/11 12:41:43;;;;;;;4.93;2.30;;;;;;;;;;5093476;28;20441;-73
2021/10/11 12:44:15;;;;;;;11.73;3.00;;;;;;;;;;5093147;28;20455;-73
2021/10/11 12:46:43;;;;;;;7.83;2.20;;;;;;;;;;5093964;28;20905;-73
2021/10/11 12:49:10;;;;;;;3.33;2.30;;;;;;;;;;5093691;28;20441;-74
2021/10/11 12:51:38;;;;;;;3.80;1.80;;;;;;;;;;5093663;28;20470;-73
2021/10/11 12:54:06;;;;;;;4.83;1.97;;;;;;;;;;5092982;28;20537;-73
2021/10/11 12:56:35;;;;;;;5.83;2.30;;;;;;;;;;5093758;28;20447;-73
2021/10/11 12:59:03;;;;;;;6.40;2.17;;;;;;;;;;5093205;28;20884;-73
2021/10/11 13:01:30;;;;;;;5.40;2.00;;;;;;;;;;5093111;28;20441;-73
2021/10/11 13:03:58;;;;;;;4.27;1.80;;;;;;;;;;5093455;28;20992;-74
2021/10/11 13:06:25;;;;;;;7.60;2.67;;;;;;;;;;5093424;28;20448;-74
2021/10/11 13:08:53;;;;;;;7.33;2.03;;;;;;;;;;5092798;28;20482;-74
2021/10/11 13:11:20;;;;;;;7.60;2.30;;;;;;;;;;5093606;28;20443;-75
2021/10/11 13:13:49;;;;;;;4.90;2.10;;;;;;;;;;5093305;28;20442;-74
2021/10/11 13:16:16;;;;;;;7.80;2.70;;;;;;;;;;5092826;28;20452;-74
2021/10/11 13:18:43;;;;;;;9.67;2.10;;;;;;;;;;5093038;28;20449;-73
2021/10/11 13:21:10;;;;;;;3.93;3.00;;;;;;;;;;5093151;28;20441;-75
2021/10/11 13:23:39;;;;;;;3.87;2.00;;;;;;;;;;5093145;28;20435;-75
2021/10/11 13:26:06;;;;;;;6.30;2.13;;;;;;;;;;5093665;28;21092;-76
2021/10/11 13:28:36;;;;;;;9.07;2.60;;;;;;;;;;5094392;28;20477;-74
2021/10/11 14:27:38;;;;;;;8.87;1.90;;;;;;;;;;5068307;28;20505;-74
2021/10/11 14:29:35;;;;;;;5.83;1.80;;;;;;;;;;5094545;28;20480;-74
2021/10/11 14:32:07;;;;;;;5.67;1.67;;;;;;;;;;5095234;28;20494;-75
2021/10/11 15:50:52;;;;;;;2.77;1.80;;;;;;;;;;5095156;28;20789;-74
2021/10/11 15:55:07;;;;;;;4.80;1.87;;;;;;;;;;5093416;28;20503;-74
2021/10/11 16:00:18;;;;;;;3.23;2.70;;;;;;;;;;5091167;28;20442;-74
2021/10/11 16:02:49;;;;;;;5.70;2.30;;;;;;;;;;5093586;28;20475;-74
2021/10/11 16:05:16;;;;;;;4.83;1.53;;;;;;;;;;5094728;28;20424;-74
2021/10/11 16:07:43;;;;;;;2.67;1.80;;;;;;;;;;5093842;28;20518;-74
2021/10/11 16:10:11;;;;;;;3.57;1.83;;;;;;;;;;5093835;28;20527;-74
2021/10/11 16:12:39;;;;;;;3.10;2.07;;;;;;;;;;5094579;28;20531;-74
2021/10/11 16:15:07;;;;;;;5.93;2.07;;;;;;;;;;5093784;28;20926;-75
2021/10/11 16:17:36;;;;;;;5.00;3.13;;;;;;;;;;5093715;28;20844;-75
2021/10/11 16:20:08;;;;;;;6.90;4.00;;;;;;;;;;5093357;28;20493;-74
2021/10/11 16:22:35;;;;;;;6.33;3.13;;;;;;;;;;5094498;28;20458;-74
2021/10/11 16:25:02;;;;;;;4.20;2.03;;;;;;;;;;5093300;28;20443;-74
2021/10/11 16:27:30;;;;;;;6.47;2.30;;;;;;;;;;5093523;28;20805;-74
2021/10/11 16:29:57;;;;;;;5.47;2.60;;;;;;;;;;5093759;28;20436;-75
2021/10/11 16:32:29;;;;;;;6.33;2.90;;;;;;;;;;5093777;28;20440;-74
2021/10/11 16:34:57;;;;;;;10.10;4.00;;;;;;;;;;5093444;28;20914;-74
2021/10/11 16:37:25;;;;;;;8.03;3.10;;;;;;;;;;5093568;28;20450;-74
2021/10/11 16:39:52;;;;;;;6.23;3.57;;;;;;;;;;5093150;28;20954;-74
2021/10/11 16:42:19;;;;;;;9.30;3.90;;;;;;;;;;5093153;28;20981;-74
2021/10/11 16:44:46;;;;;;;8.77;3.10;;;;;;;;;;5093504;28;20461;-74
2021/10/11 16:47:13;;;;;;;6.47;3.90;;;;;;;;;;5093110;28;20539;-74
2021/10/11 16:49:41;;;;;;;6.37;2.83;;;;;;;;;;5093356;28;20479;-74